sensor_id;sensor_type;location;lat;lon;timestamp;pressure;altitude;pressure_sealevel;temperature;humidity
33155;BME280;19511;42.682;23.332;2023-02-01T00:01:43;95261.25;;;0.93;100.00
33155;BME280;19511;42.682;23.332;2023-02-01T00:04:08;95144.06;;;0.20;100.00
33155;BME280;19511;42.682;23.332;2023-02-01T00:06:34;95254.34;;;0.95;100.00
33155;BME280;19511;42.682;23.332;2023-02-01T00:08:59;95159.81;;;0.27;100.00
33155;BME280;19511;42.682;23.332;2023-02-01T00:11:25;95233.94;;;0.77;100.00
33155;BME280;19511;42.682;23.332;2023-02-01T00:13:50;95160.69;;;0.31;100.00
33155;BME280;19511;42.682;23.332;2023-02-01T00:16:18;95262.81;;;0.94;100.00
33155;BME280;19511;42.682;23.332;2023-02-01T00:18:49;95256.59;;;0.93;100.00
33155;BME280;19511;42.682;23.332;2023-02-01T00:21:17;95249.03;;;0.87;100.00
33155;BME280;19511;42.682;23.332;2023-02-01T00:23:42;95257.94;;;1.00;100.00
33155;BME280;19511;42.682;23.332;2023-02-01T00:26:14;95233.34;;;0.84;100.00
33155;BME280;19511;42.682;23.332;2023-02-01T00:28:40;95239.16;;;0.82;100.00
33155;BME280;19511;42.682;23.332;2023-02-01T00:31:06;95240.63;;;0.79;100.00
33155;BME280;19511;42.682;23.332;2023-02-01T00:33:32;95245.72;;;0.81;100.00
33155;BME280;19511;42.682;23.332;2023-02-01T00:35:58;95239.72;;;0.88;100.00
33155;BME280;19511;42.682;23.332;2023-02-01T00:38:25;95239.06;;;0.78;100.00
33155;BME280;19511;42.682;23.332;2023-02-01T00:40:50;95251.84;;;0.90;100.00
33155;BME280;19511;42.682;23.332;2023-02-01T00:43:16;95169.88;;;0.39;100.00
33155;BME280;19511;42.682;23.332;2023-02-01T00:45:41;95251.16;;;0.93;100.00
33155;BME280;19511;42.682;23.332;2023-02-01T00:48:07;95139.19;;;0.26;100.00
33155;BME280;19511;42.682;23.332;2023-02-01T00:50:32;95221.94;;;0.78;100.00
33155;BME280;19511;42.682;23.332;2023-02-01T00:52:58;95250.69;;;0.91;100.00
33155;BME280;19511;42.682;23.332;2023-02-01T00:55:23;95238.56;;;0.89;100.00
33155;BME280;19511;42.682;23.332;2023-02-01T00:57:49;95238.13;;;0.87;100.00
33155;BME280;19511;42.682;23.332;2023-02-01T01:00:15;95231.97;;;0.90;100.00
33155;BME280;19511;42.682;23.332;2023-02-01T01:02:41;95231.44;;;0.84;100.00
33155;BME280;19511;42.682;23.332;2023-02-01T01:05:07;95196.22;;;0.63;100.00
33155;BME280;19511;42.682;23.332;2023-02-01T01:07:32;95136.22;;;0.31;100.00
33155;BME280;19511;42.682;23.332;2023-02-01T01:09:58;95226.00;;;0.84;100.00
33155;BME280;19511;42.682;23.332;2023-02-01T01:12:23;95132.94;;;0.25;100.00
33155;BME280;19511;42.682;23.332;2023-02-01T01:14:49;95238.66;;;0.92;100.00
33155;BME280;19511;42.682;23.332;2023-02-01T01:17:14;95128.53;;;0.21;100.00
33155;BME280;19511;42.682;23.332;2023-02-01T01:19:39;95212.16;;;0.77;100.00
33155;BME280;19511;42.682;23.332;2023-02-01T01:22:05;95226.88;;;0.88;100.00
33155;BME280;19511;42.682;23.332;2023-02-01T01:24:30;95228.47;;;0.89;100.00
33155;BME280;19511;42.682;23.332;2023-02-01T01:26:56;95208.66;;;0.76;100.00
33155;BME280;19511;42.682;23.332;2023-02-01T01:29:25;95227.41;;;0.94;100.00
33155;BME280;19511;42.682;23.332;2023-02-01T01:31:50;95230.84;;;0.91;100.00
33155;BME280;19511;42.682;23.332;2023-02-01T01:34:16;95228.91;;;0.91;100.00
33155;BME280;19511;42.682;23.332;2023-02-01T01:36:41;95200.75;;;0.71;100.00
33155;BME280;19511;42.682;23.332;2023-02-01T01:39:07;95241.84;;;0.94;100.00
33155;BME280;19511;42.682;23.332;2023-02-01T01:41:37;95232.94;;;0.81;100.00
33155;BME280;19511;42.682;23.332;2023-02-01T01:44:04;95239.41;;;0.77;100.00
33155;BME280;19511;42.682;23.332;2023-02-01T01:46:36;95242.13;;;0.77;100.00
33155;BME280;19511;42.682;23.332;2023-02-01T01:49:10;95236.50;;;0.57;100.00
33155;BME280;19511;42.682;23.332;2023-02-01T01:51:58;95223.69;;;0.58;100.00
33155;BME280;19511;42.682;23.332;2023-02-01T01:54:36;95249.63;;;0.68;100.00
33155;BME280;19511;42.682;23.332;2023-02-01T01:57:12;95239.00;;;0.62;100.00
33155;BME280;19511;42.682;23.332;2023-02-01T01:59:41;95221.09;;;0.49;100.00
33155;BME280;19511;42.682;23.332;2023-02-01T02:02:08;95241.25;;;0.60;100.00
33155;BME280;19511;42.682;23.332;2023-02-01T02:04:35;95191.66;;;0.26;100.00
33155;BME280;19511;42.682;23.332;2023-02-01T02:07:04;95179.88;;;0.10;100.00
33155;BME280;19511;42.682;23.332;2023-02-01T02:09:30;95141.72;;;-0.19;100.00
33155;BME280;19511;42.682;23.332;2023-02-01T02:11:56;95216.34;;;0.34;100.00
33155;BME280;19511;42.682;23.332;2023-02-01T02:14:23;95243.09;;;0.31;100.00
33155;BME280;19511;42.682;23.332;2023-02-01T02:33:12;95238.66;;;0.39;100.00
33155;BME280;19511;42.682;23.332;2023-02-01T02:46:33;95232.91;;;0.28;100.00
33155;BME280;19511;42.682;23.332;2023-02-01T02:49:23;95195.75;;;0.08;100.00
33155;BME280;19511;42.682;23.332;2023-02-01T02:51:57;95215.22;;;0.22;100.00
33155;BME280;19511;42.682;23.332;2023-02-01T02:54:46;95140.25;;;-0.28;100.00
33155;BME280;19511;42.682;23.332;2023-02-01T02:57:27;95127.38;;;-0.31;100.00
33155;BME280;19511;42.682;23.332;2023-02-01T03:00:15;95144.34;;;-0.22;100.00
33155;BME280;19511;42.682;23.332;2023-02-01T03:03:01;95124.88;;;-0.37;100.00
33155;BME280;19511;42.682;23.332;2023-02-01T03:05:47;95135.06;;;-0.34;100.00
33155;BME280;19511;42.682;23.332;2023-02-01T03:08:27;95241.75;;;0.38;100.00
33155;BME280;19511;42.682;23.332;2023-02-01T03:11:09;95249.47;;;0.36;100.00
33155;BME280;19511;42.682;23.332;2023-02-01T03:18:59;95240.84;;;0.34;100.00
33155;BME280;19511;42.682;23.332;2023-02-01T03:24:21;95155.56;;;-0.24;100.00
33155;BME280;19511;42.682;23.332;2023-02-01T03:27:22;95158.41;;;-0.20;100.00
33155;BME280;19511;42.682;23.332;2023-02-01T03:29:56;95261.56;;;0.51;100.00
33155;BME280;19511;42.682;23.332;2023-02-01T03:32:25;95266.00;;;0.43;100.00
33155;BME280;19511;42.682;23.332;2023-02-01T03:34:51;95264.16;;;0.47;100.00
33155;BME280;19511;42.682;23.332;2023-02-01T03:37:25;95266.09;;;0.46;100.00
33155;BME280;19511;42.682;23.332;2023-02-01T03:40:03;95257.28;;;0.37;100.00
33155;BME280;19511;42.682;23.332;2023-02-01T03:42:50;95262.38;;;0.51;100.00
33155;BME280;19511;42.682;23.332;2023-02-01T03:45:30;95256.69;;;0.44;100.00
33155;BME280;19511;42.682;23.332;2023-02-01T03:48:00;95244.22;;;0.43;100.00
33155;BME280;19511;42.682;23.332;2023-02-01T03:50:28;95249.31;;;0.44;100.00
33155;BME280;19511;42.682;23.332;2023-02-01T03:52:59;95259.75;;;0.55;100.00
33155;BME280;19511;42.682;23.332;2023-02-01T03:55:28;95265.63;;;0.57;100.00
33155;BME280;19511;42.682;23.332;2023-02-01T03:58:11;95251.25;;;0.56;100.00
33155;BME280;19511;42.682;23.332;2023-02-01T04:00:38;95254.56;;;0.50;100.00
33155;BME280;19511;42.682;23.332;2023-02-01T04:03:07;95268.00;;;0.58;100.00
33155;BME280;19511;42.682;23.332;2023-02-01T04:05:33;95259.19;;;0.61;100.00
33155;BME280;19511;42.682;23.332;2023-02-01T04:07:59;95249.31;;;0.57;100.00
33155;BME280;19511;42.682;23.332;2023-02-01T04:10:25;95176.59;;;0.17;100.00
33155;BME280;19511;42.682;23.332;2023-02-01T04:12:54;95249.41;;;0.60;100.00
33155;BME280;19511;42.682;23.332;2023-02-01T04:15:19;95108.66;;;-0.21;100.00
33155;BME280;19511;42.682;23.332;2023-02-01T04:17:45;95242.97;;;0.53;100.00
33155;BME280;19511;42.682;23.332;2023-02-01T04:20:10;95263.69;;;0.70;100.00
33155;BME280;19511;42.682;23.332;2023-02-01T04:22:36;95244.09;;;0.64;100.00
33155;BME280;19511;42.682;23.332;2023-02-01T04:25:02;95241.38;;;0.64;100.00
33155;BME280;19511;42.682;23.332;2023-02-01T04:27:30;95258.09;;;0.78;100.00
33155;BME280;19511;42.682;23.332;2023-02-01T04:29:56;95261.81;;;0.86;100.00
33155;BME280;19511;42.682;23.332;2023-02-01T04:32:21;95165.13;;;0.23;100.00
33155;BME280;19511;42.682;23.332;2023-02-01T04:34:47;95260.47;;;0.80;100.00
33155;BME280;19511;42.682;23.332;2023-02-01T04:37:19;95252.53;;;0.87;100.00
33155;BME280;19511;42.682;23.332;2023-02-01T04:39:44;95225.81;;;0.64;100.00
33155;BME280;19511;42.682;23.332;2023-02-01T04:42:09;95266.16;;;0.87;100.00
33155;BME280;19511;42.682;23.332;2023-02-01T04:44:35;95247.78;;;0.84;100.00
33155;BME280;19511;42.682;23.332;2023-02-01T04:47:02;95266.50;;;0.86;100.00
33155;BME280;19511;42.682;23.332;2023-02-01T04:49:27;95167.16;;;0.26;100.00
33155;BME280;19511;42.682;23.332;2023-02-01T04:51:53;95254.81;;;0.85;100.00
33155;BME280;19511;42.682;23.332;2023-02-01T04:54:21;95263.63;;;0.94;100.00
33155;BME280;19511;42.682;23.332;2023-02-01T04:56:46;95270.69;;;0.95;100.00
33155;BME280;19511;42.682;23.332;2023-02-01T04:59:12;95277.69;;;0.96;100.00
33155;BME280;19511;42.682;23.332;2023-02-01T05:01:38;95269.09;;;0.94;100.00
33155;BME280;19511;42.682;23.332;2023-02-01T05:04:05;95266.34;;;0.94;100.00
33155;BME280;19511;42.682;23.332;2023-02-01T05:06:31;95281.75;;;1.03;100.00
33155;BME280;19511;42.682;23.332;2023-02-01T05:08:56;95283.59;;;0.98;100.00
33155;BME280;19511;42.682;23.332;2023-02-01T05:11:22;95289.75;;;0.95;100.00
33155;BME280;19511;42.682;23.332;2023-02-01T05:14:05;95289.16;;;0.90;100.00
33155;BME280;19511;42.682;23.332;2023-02-01T05:16:31;95300.97;;;0.94;100.00
33155;BME280;19511;42.682;23.332;2023-02-01T05:18:57;95287.34;;;0.94;100.00
33155;BME280;19511;42.682;23.332;2023-02-01T05:21:22;95300.19;;;0.93;100.00
33155;BME280;19511;42.682;23.332;2023-02-01T05:23:48;95294.03;;;0.96;100.00
33155;BME280;19511;42.682;23.332;2023-02-01T05:26:31;95295.38;;;1.03;100.00
33155;BME280;19511;42.682;23.332;2023-02-01T05:28:57;95190.38;;;0.36;100.00
33155;BME280;19511;42.682;23.332;2023-02-01T05:31:24;95257.88;;;0.84;100.00
33155;BME280;19511;42.682;23.332;2023-02-01T05:33:49;95284.72;;;0.97;100.00
33155;BME280;19511;42.682;23.332;2023-02-01T05:36:14;95295.59;;;1.10;100.00
33155;BME280;19511;42.682;23.332;2023-02-01T05:38:40;95299.19;;;1.14;100.00
33155;BME280;19511;42.682;23.332;2023-02-01T05:41:10;95284.44;;;1.15;100.00
33155;BME280;19511;42.682;23.332;2023-02-01T05:43:36;95284.66;;;1.22;100.00
33155;BME280;19511;42.682;23.332;2023-02-01T05:46:02;95303.47;;;1.27;100.00
33155;BME280;19511;42.682;23.332;2023-02-01T05:48:27;95288.03;;;1.32;100.00
33155;BME280;19511;42.682;23.332;2023-02-01T05:50:53;95293.47;;;1.32;100.00
33155;BME280;19511;42.682;23.332;2023-02-01T05:53:18;95304.81;;;1.34;100.00
33155;BME280;19511;42.682;23.332;2023-02-01T05:55:44;95278.81;;;1.36;100.00
33155;BME280;19511;42.682;23.332;2023-02-01T05:58:09;95182.72;;;0.67;100.00
33155;BME280;19511;42.682;23.332;2023-02-01T06:00:34;95266.22;;;1.32;100.00
33155;BME280;19511;42.682;23.332;2023-02-01T06:03:00;95289.66;;;1.49;100.00
33155;BME280;19511;42.682;23.332;2023-02-01T06:05:26;95299.75;;;1.48;100.00
33155;BME280;19511;42.682;23.332;2023-02-01T06:07:52;95302.69;;;1.55;100.00
33155;BME280;19511;42.682;23.332;2023-02-01T06:10:20;95294.16;;;1.57;100.00
33155;BME280;19511;42.682;23.332;2023-02-01T06:12:46;95119.84;;;0.43;100.00
33155;BME280;19511;42.682;23.332;2023-02-01T06:15:12;95301.31;;;1.61;100.00
33155;BME280;19511;42.682;23.332;2023-02-01T06:17:41;95226.78;;;1.13;100.00
33155;BME280;19511;42.682;23.332;2023-02-01T06:20:09;95310.72;;;1.64;100.00
33155;BME280;19511;42.682;23.332;2023-02-01T06:22:34;95313.97;;;1.70;100.00
33155;BME280;19511;42.682;23.332;2023-02-01T06:25:02;95303.41;;;1.68;100.00
33155;BME280;19511;42.682;23.332;2023-02-01T06:27:27;95306.34;;;1.75;100.00
33155;BME280;19511;42.682;23.332;2023-02-01T06:29:53;95306.50;;;1.83;100.00
33155;BME280;19511;42.682;23.332;2023-02-01T06:32:20;95308.56;;;1.86;100.00
33155;BME280;19511;42.682;23.332;2023-02-01T06:34:45;95211.44;;;1.21;100.00
33155;BME280;19511;42.682;23.332;2023-02-01T06:37:11;95305.72;;;1.82;100.00
33155;BME280;19511;42.682;23.332;2023-02-01T06:39:37;95296.31;;;1.79;100.00
33155;BME280;19511;42.682;23.332;2023-02-01T06:42:03;95244.97;;;1.37;100.00
33155;BME280;19511;42.682;23.332;2023-02-01T06:44:28;95314.44;;;1.88;100.00
33155;BME280;19511;42.682;23.332;2023-02-01T06:46:54;95319.22;;;1.91;100.00
33155;BME280;19511;42.682;23.332;2023-02-01T06:49:20;95220.16;;;1.26;100.00
33155;BME280;19511;42.682;23.332;2023-02-01T06:51:45;95322.72;;;1.91;100.00
33155;BME280;19511;42.682;23.332;2023-02-01T06:54:11;95313.19;;;1.85;100.00
33155;BME280;19511;42.682;23.332;2023-02-01T06:56:36;95336.44;;;1.95;100.00
33155;BME280;19511;42.682;23.332;2023-02-01T06:59:07;95337.25;;;1.95;100.00
33155;BME280;19511;42.682;23.332;2023-02-01T07:01:32;95326.69;;;1.94;100.00
33155;BME280;19511;42.682;23.332;2023-02-01T07:03:58;95336.66;;;2.02;100.00
33155;BME280;19511;42.682;23.332;2023-02-01T07:06:23;95336.09;;;1.96;100.00
33155;BME280;19511;42.682;23.332;2023-02-01T07:08:50;95343.97;;;1.98;100.00
33155;BME280;19511;42.682;23.332;2023-02-01T07:11:16;95251.91;;;1.35;100.00
33155;BME280;19511;42.682;23.332;2023-02-01T07:13:42;95343.16;;;1.98;100.00
33155;BME280;19511;42.682;23.332;2023-02-01T07:16:13;95356.00;;;2.13;100.00
33155;BME280;19511;42.682;23.332;2023-02-01T07:18:39;95361.91;;;2.15;100.00
33155;BME280;19511;42.682;23.332;2023-02-01T07:21:05;95278.59;;;1.57;100.00
33155;BME280;19511;42.682;23.332;2023-02-01T07:23:31;95370.88;;;2.16;100.00
33155;BME280;19511;42.682;23.332;2023-02-01T07:26:00;95268.19;;;1.47;100.00
33155;BME280;19511;42.682;23.332;2023-02-01T07:28:28;95335.84;;;2.02;100.00
33155;BME280;19511;42.682;23.332;2023-02-01T07:30:56;95358.47;;;2.18;100.00
33155;BME280;19511;42.682;23.332;2023-02-01T07:33:26;95372.78;;;2.27;100.00
33155;BME280;19511;42.682;23.332;2023-02-01T07:35:53;95345.34;;;2.08;100.00
33155;BME280;19511;42.682;23.332;2023-02-01T07:38:18;95363.88;;;2.31;100.00
33155;BME280;19511;42.682;23.332;2023-02-01T07:40:49;95380.25;;;2.31;100.00
33155;BME280;19511;42.682;23.332;2023-02-01T07:43:15;95374.44;;;2.32;100.00
33155;BME280;19511;42.682;23.332;2023-02-01T07:45:40;95276.00;;;1.77;100.00
33155;BME280;19511;42.682;23.332;2023-02-01T07:48:06;95376.03;;;2.49;100.00
33155;BME280;19511;42.682;23.332;2023-02-01T07:50:33;95365.38;;;2.44;100.00
33155;BME280;19511;42.682;23.332;2023-02-01T07:53:03;95386.16;;;2.49;100.00
33155;BME280;19511;42.682;23.332;2023-02-01T07:55:28;95382.09;;;2.58;100.00
33155;BME280;19511;42.682;23.332;2023-02-01T07:58:08;95363.19;;;2.34;100.00
33155;BME280;19511;42.682;23.332;2023-02-01T08:00:34;95349.88;;;2.32;100.00
33155;BME280;19511;42.682;23.332;2023-02-01T08:03:20;95372.84;;;2.47;100.00
33155;BME280;19511;42.682;23.332;2023-02-01T08:05:55;95368.13;;;2.44;100.00
33155;BME280;19511;42.682;23.332;2023-02-01T08:08:21;95400.97;;;2.64;100.00
33155;BME280;19511;42.682;23.332;2023-02-01T08:10:47;95391.88;;;2.59;100.00
33155;BME280;19511;42.682;23.332;2023-02-01T08:13:12;95402.28;;;2.70;100.00
33155;BME280;19511;42.682;23.332;2023-02-01T08:15:38;95408.25;;;2.75;100.00
33155;BME280;19511;42.682;23.332;2023-02-01T08:18:08;95394.78;;;2.83;100.00
33155;BME280;19511;42.682;23.332;2023-02-01T08:20:35;95361.75;;;2.72;100.00
33155;BME280;19511;42.682;23.332;2023-02-01T08:23:02;95395.81;;;2.94;100.00
33155;BME280;19511;42.682;23.332;2023-02-01T08:25:27;95297.56;;;2.30;100.00
33155;BME280;19511;42.682;23.332;2023-02-01T08:27:53;95400.50;;;2.93;100.00
33155;BME280;19511;42.682;23.332;2023-02-01T08:30:19;95397.78;;;2.93;100.00
33155;BME280;19511;42.682;23.332;2023-02-01T08:32:45;95398.19;;;2.96;100.00
33155;BME280;19511;42.682;23.332;2023-02-01T08:35:16;95369.69;;;2.77;100.00
33155;BME280;19511;42.682;23.332;2023-02-01T08:37:41;95397.59;;;3.02;100.00
33155;BME280;19511;42.682;23.332;2023-02-01T08:40:07;95312.34;;;2.45;100.00
33155;BME280;19511;42.682;23.332;2023-02-01T08:42:33;95396.78;;;3.02;100.00
33155;BME280;19511;42.682;23.332;2023-02-01T08:45:17;95407.03;;;3.05;100.00
33155;BME280;19511;42.682;23.332;2023-02-01T08:47:44;95397.94;;;3.01;100.00
33155;BME280;19511;42.682;23.332;2023-02-01T08:50:14;95396.22;;;3.12;100.00
33155;BME280;19511;42.682;23.332;2023-02-01T08:52:45;95382.66;;;3.16;100.00
33155;BME280;19511;42.682;23.332;2023-02-01T08:55:20;95285.03;;;2.61;100.00
33155;BME280;19511;42.682;23.332;2023-02-01T08:57:53;95388.94;;;3.36;100.00
33155;BME280;19511;42.682;23.332;2023-02-01T09:02:46;95388.84;;;3.48;100.00
33155;BME280;19511;42.682;23.332;2023-02-01T09:05:13;95371.28;;;3.49;100.00
33155;BME280;19511;42.682;23.332;2023-02-01T09:07:43;95380.63;;;3.68;100.00
33155;BME280;19511;42.682;23.332;2023-02-01T09:10:09;95391.16;;;3.66;100.00
33155;BME280;19511;42.682;23.332;2023-02-01T09:12:35;95387.81;;;3.56;100.00
33155;BME280;19511;42.682;23.332;2023-02-01T09:15:01;95391.94;;;3.66;100.00
33155;BME280;19511;42.682;23.332;2023-02-01T09:17:31;95377.69;;;3.57;100.00
33155;BME280;19511;42.682;23.332;2023-02-01T09:19:56;95396.06;;;3.76;100.00
33155;BME280;19511;42.682;23.332;2023-02-01T09:22:24;95408.63;;;3.81;100.00
33155;BME280;19511;42.682;23.332;2023-02-01T09:24:54;95404.09;;;3.69;100.00
33155;BME280;19511;42.682;23.332;2023-02-01T09:27:24;95401.06;;;3.74;100.00
33155;BME280;19511;42.682;23.332;2023-02-01T09:29:55;95370.41;;;3.65;100.00
33155;BME280;19511;42.682;23.332;2023-02-01T09:32:29;95403.69;;;3.86;100.00
33155;BME280;19511;42.682;23.332;2023-02-01T09:34:56;95379.19;;;3.74;100.00
33155;BME280;19511;42.682;23.332;2023-02-01T09:37:30;95386.94;;;3.72;100.00
33155;BME280;19511;42.682;23.332;2023-02-01T09:39:55;95385.88;;;3.76;100.00
33155;BME280;19511;42.682;23.332;2023-02-01T09:45:24;95281.84;;;2.94;100.00
33155;BME280;19511;42.682;23.332;2023-02-01T09:47:56;95376.00;;;3.52;100.00
33155;BME280;19511;42.682;23.332;2023-02-01T09:52:55;95378.25;;;3.66;100.00
33155;BME280;19511;42.682;23.332;2023-02-01T09:58:16;95334.41;;;3.63;100.00
33155;BME280;19511;42.682;23.332;2023-02-01T10:00:52;95345.22;;;3.75;100.00
33155;BME280;19511;42.682;23.332;2023-02-01T10:03:18;95334.97;;;3.72;100.00
33155;BME280;19511;42.682;23.332;2023-02-01T10:09:04;95352.75;;;3.82;100.00
33155;BME280;19511;42.682;23.332;2023-02-01T10:14:41;95354.66;;;4.20;100.00
33155;BME280;19511;42.682;23.332;2023-02-01T10:20:12;95328.50;;;4.46;100.00
33155;BME280;19511;42.682;23.332;2023-02-01T10:22:43;95217.38;;;3.95;100.00
33155;BME280;19511;42.682;23.332;2023-02-01T10:25:29;95316.56;;;4.85;100.00
33155;BME280;19511;42.682;23.332;2023-02-01T10:27:59;95323.25;;;4.87;100.00
33155;BME280;19511;42.682;23.332;2023-02-01T10:30:30;95327.69;;;4.96;99.81
33155;BME280;19511;42.682;23.332;2023-02-01T10:33:16;95310.75;;;5.17;100.00
33155;BME280;19511;42.682;23.332;2023-02-01T10:35:44;95301.06;;;5.27;96.60
33155;BME280;19511;42.682;23.332;2023-02-01T10:38:25;95300.63;;;5.21;94.60
33155;BME280;19511;42.682;23.332;2023-02-01T10:41:15;95204.28;;;4.62;96.44
33155;BME280;19511;42.682;23.332;2023-02-01T10:43:47;95213.53;;;4.80;93.50
33155;BME280;19511;42.682;23.332;2023-02-01T10:46:13;95208.72;;;5.04;93.17
33155;BME280;19511;42.682;23.332;2023-02-01T10:48:39;95289.06;;;5.69;92.70
33155;BME280;19511;42.682;23.332;2023-02-01T10:51:12;95307.00;;;5.63;88.94
33155;BME280;19511;42.682;23.332;2023-02-01T10:53:46;95283.38;;;5.54;91.77
33155;BME280;19511;42.682;23.332;2023-02-01T10:56:13;95175.66;;;4.89;93.09
33155;BME280;19511;42.682;23.332;2023-02-01T10:58:44;95277.31;;;5.38;91.87
33155;BME280;19511;42.682;23.332;2023-02-01T11:01:22;95286.38;;;5.42;91.53
33155;BME280;19511;42.682;23.332;2023-02-01T11:03:58;95286.56;;;5.56;91.16
33155;BME280;19511;42.682;23.332;2023-02-01T11:06:30;95292.16;;;5.67;90.53
33155;BME280;19511;42.682;23.332;2023-02-01T11:09:18;95293.25;;;5.59;89.46
33155;BME280;19511;42.682;23.332;2023-02-01T11:14:17;95288.50;;;5.56;89.70
33155;BME280;19511;42.682;23.332;2023-02-01T11:17:23;95264.81;;;5.40;89.79
33155;BME280;19511;42.682;23.332;2023-02-01T11:19:39;95271.88;;;5.42;86.94
33155;BME280;19511;42.682;23.332;2023-02-01T11:22:05;95271.22;;;5.52;87.59
33155;BME280;19511;42.682;23.332;2023-02-01T11:24:33;95255.38;;;5.38;87.90
33155;BME280;19511;42.682;23.332;2023-02-01T11:27:03;95271.25;;;5.55;88.72
33155;BME280;19511;42.682;23.332;2023-02-01T11:29:38;95255.56;;;5.52;88.94
33155;BME280;19511;42.682;23.332;2023-02-01T11:32:05;95253.16;;;5.51;88.27
33155;BME280;19511;42.682;23.332;2023-02-01T11:37:01;95264.66;;;5.60;88.39
33155;BME280;19511;42.682;23.332;2023-02-01T11:39:33;95268.25;;;5.68;86.78
33155;BME280;19511;42.682;23.332;2023-02-01T11:42:16;95269.75;;;5.62;84.58
33155;BME280;19511;42.682;23.332;2023-02-01T11:44:44;95262.59;;;5.53;86.72
33155;BME280;19511;42.682;23.332;2023-02-01T11:47:21;95247.56;;;5.40;86.59
33155;BME280;19511;42.682;23.332;2023-02-01T11:49:52;95248.81;;;5.46;88.66
33155;BME280;19511;42.682;23.332;2023-02-01T12:00:52;95241.72;;;5.79;85.80
33155;BME280;19511;42.682;23.332;2023-02-01T12:06:19;95226.88;;;5.87;85.19
33155;BME280;19511;42.682;23.332;2023-02-01T12:11:49;95234.22;;;5.76;83.95
33155;BME280;19511;42.682;23.332;2023-02-01T12:17:12;95227.56;;;5.77;87.71
33155;BME280;19511;42.682;23.332;2023-02-01T12:36:18;95126.09;;;5.43;89.87
33155;BME280;19511;42.682;23.332;2023-02-01T12:38:50;95225.50;;;6.04;87.05
33155;BME280;19511;42.682;23.332;2023-02-01T12:46:21;95236.47;;;6.01;89.32
33155;BME280;19511;42.682;23.332;2023-02-01T12:48:59;95233.34;;;6.02;87.89
33155;BME280;19511;42.682;23.332;2023-02-01T12:51:29;95126.53;;;5.45;86.14
33155;BME280;19511;42.682;23.332;2023-02-01T12:57:23;95229.69;;;5.95;79.72
33155;BME280;19511;42.682;23.332;2023-02-01T12:59:46;95214.34;;;5.90;86.41
33155;BME280;19511;42.682;23.332;2023-02-01T13:02:35;95220.09;;;6.15;78.37
33155;BME280;19511;42.682;23.332;2023-02-01T13:05:14;95223.25;;;6.17;79.87
33155;BME280;19511;42.682;23.332;2023-02-01T13:08:24;95231.91;;;6.19;80.73
33155;BME280;19511;42.682;23.332;2023-02-01T13:10:33;95215.41;;;6.19;74.97
33155;BME280;19511;42.682;23.332;2023-02-01T13:13:44;95202.44;;;6.13;76.88
33155;BME280;19511;42.682;23.332;2023-02-01T13:16:25;95230.97;;;6.01;75.81
33155;BME280;19511;42.682;23.332;2023-02-01T13:19:02;95223.97;;;6.07;77.64
33155;BME280;19511;42.682;23.332;2023-02-01T13:21:36;95230.28;;;6.11;77.13
33155;BME280;19511;42.682;23.332;2023-02-01T13:24:04;95208.47;;;5.92;76.02
33155;BME280;19511;42.682;23.332;2023-02-01T13:26:29;95119.25;;;5.22;79.06
33155;BME280;19511;42.682;23.332;2023-02-01T13:29:01;95223.59;;;6.09;81.81
33155;BME280;19511;42.682;23.332;2023-02-01T13:39:41;95232.91;;;6.00;73.75
33155;BME280;19511;42.682;23.332;2023-02-01T13:42:18;95220.66;;;5.91;73.91
33155;BME280;19511;42.682;23.332;2023-02-01T13:45:13;95223.78;;;5.93;76.36
33155;BME280;19511;42.682;23.332;2023-02-01T13:47:45;95219.16;;;5.97;77.67
33155;BME280;19511;42.682;23.332;2023-02-01T13:52:44;95196.91;;;6.09;76.56
33155;BME280;19511;42.682;23.332;2023-02-01T13:57:49;95204.50;;;6.27;74.86
33155;BME280;19511;42.682;23.332;2023-02-01T14:00:27;95224.22;;;6.40;72.74
33155;BME280;19511;42.682;23.332;2023-02-01T14:10:59;95219.41;;;6.26;75.66
33155;BME280;19511;42.682;23.332;2023-02-01T14:13:39;95208.72;;;6.17;76.72
33155;BME280;19511;42.682;23.332;2023-02-01T14:23:54;95187.06;;;6.04;77.59
33155;BME280;19511;42.682;23.332;2023-02-01T14:26:44;95122.75;;;5.61;77.74
33155;BME280;19511;42.682;23.332;2023-02-01T14:31:47;95199.69;;;6.13;80.14
33155;BME280;19511;42.682;23.332;2023-02-01T14:37:01;95195.31;;;6.08;76.68
33155;BME280;19511;42.682;23.332;2023-02-01T14:47:52;95208.22;;;6.04;83.66
33155;BME280;19511;42.682;23.332;2023-02-01T14:58:18;95226.16;;;5.91;83.67
33155;BME280;19511;42.682;23.332;2023-02-01T15:00:58;95220.09;;;5.74;85.52
33155;BME280;19511;42.682;23.332;2023-02-01T15:05:57;95222.81;;;5.70;86.90
33155;BME280;19511;42.682;23.332;2023-02-01T15:08:38;95208.63;;;5.65;87.45
33155;BME280;19511;42.682;23.332;2023-02-01T15:11:14;95223.94;;;5.66;88.88
33155;BME280;19511;42.682;23.332;2023-02-01T15:13:39;95222.00;;;5.66;89.81
33155;BME280;19511;42.682;23.332;2023-02-01T15:16:10;95123.25;;;4.95;90.75
33155;BME280;19511;42.682;23.332;2023-02-01T15:18:38;95205.31;;;5.45;91.09
33155;BME280;19511;42.682;23.332;2023-02-01T15:21:04;95111.88;;;4.93;89.52
33155;BME280;19511;42.682;23.332;2023-02-01T15:23:32;95207.75;;;5.57;90.39
33155;BME280;19511;42.682;23.332;2023-02-01T15:25:57;95198.53;;;5.35;90.51
33155;BME280;19511;42.682;23.332;2023-02-01T15:28:24;95143.38;;;5.06;91.13
33155;BME280;19511;42.682;23.332;2023-02-01T15:31:02;95185.22;;;5.37;91.01
33155;BME280;19511;42.682;23.332;2023-02-01T15:33:29;95100.03;;;4.81;91.28
33155;BME280;19511;42.682;23.332;2023-02-01T15:35:56;95202.09;;;5.39;91.88
33155;BME280;19511;42.682;23.332;2023-02-01T15:38:36;95196.66;;;5.43;91.34
33155;BME280;19511;42.682;23.332;2023-02-01T15:41:17;95200.56;;;5.42;92.86
33155;BME280;19511;42.682;23.332;2023-02-01T15:44:17;95197.44;;;5.43;89.46